sensor_id;sensor_type;location;lat;lon;timestamp;P1;durP1;ratioP1;P2;durP2;ratioP2
64686;SDS011;51113;53.646;-113.674;2023-04-07T00:02:26;9.77;;;3.92;;
64686;SDS011;51113;53.646;-113.674;2023-04-07T00:04:55;11.40;;;3.95;;
64686;SDS011;51113;53.646;-113.674;2023-04-07T00:07:25;8.40;;;3.60;;
64686;SDS011;51113;53.646;-113.674;2023-04-07T00:09:54;14.70;;;3.33;;
64686;SDS011;51113;53.646;-113.674;2023-04-07T00:12:23;14.07;;;4.53;;
64686;SDS011;51113;53.646;-113.674;2023-04-07T00:14:55;13.20;;;3.50;;
64686;SDS011;51113;53.646;-113.674;2023-04-07T00:17:24;17.20;;;3.80;;
64686;SDS011;51113;53.646;-113.674;2023-04-07T00:19:53;8.98;;;3.13;;
64686;SDS011;51113;53.646;-113.674;2023-04-07T00:22:21;20.73;;;3.80;;
64686;SDS011;51113;53.646;-113.674;2023-04-07T00:24:51;25.65;;;3.42;;
64686;SDS011;51113;53.646;-113.674;2023-04-07T00:27:19;11.05;;;2.95;;
64686;SDS011;51113;53.646;-113.674;2023-04-07T00:29:49;11.90;;;4.10;;
64686;SDS011;51113;53.646;-113.674;2023-04-07T00:32:18;17.08;;;3.50;;
64686;SDS011;51113;53.646;-113.674;2023-04-07T00:34:47;11.85;;;3.15;;
64686;SDS011;51113;53.646;-113.674;2023-04-07T00:37:15;14.10;;;3.03;;
64686;SDS011;51113;53.646;-113.674;2023-04-07T00:39:46;7.82;;;2.90;;
64686;SDS011;51113;53.646;-113.674;2023-04-07T00:42:14;11.65;;;3.08;;
64686;SDS011;51113;53.646;-113.674;2023-04-07T00:44:43;13.70;;;3.30;;
64686;SDS011;51113;53.646;-113.674;2023-04-07T00:47:12;8.95;;;3.22;;
64686;SDS011;51113;53.646;-113.674;2023-04-07T00:49:41;8.35;;;3.20;;
64686;SDS011;51113;53.646;-113.674;2023-04-07T00:52:09;6.45;;;2.75;;
64686;SDS011;51113;53.646;-113.674;2023-04-07T00:54:39;7.90;;;2.80;;
64686;SDS011;51113;53.646;-113.674;2023-04-07T00:57:09;10.85;;;3.80;;
64686;SDS011;51113;53.646;-113.674;2023-04-07T00:59:38;9.43;;;3.30;;
64686;SDS011;51113;53.646;-113.674;2023-04-07T01:02:09;12.93;;;2.70;;
64686;SDS011;51113;53.646;-113.674;2023-04-07T01:07:23;9.30;;;2.95;;
64686;SDS011;51113;53.646;-113.674;2023-04-07T01:10:03;12.60;;;3.20;;
64686;SDS011;51113;53.646;-113.674;2023-04-07T01:15:18;14.10;;;3.00;;
64686;SDS011;51113;53.646;-113.674;2023-04-07T01:17:51;10.52;;;3.10;;
64686;SDS011;51113;53.646;-113.674;2023-04-07T01:20:23;11.15;;;3.08;;
64686;SDS011;51113;53.646;-113.674;2023-04-07T01:22:55;5.82;;;2.97;;
64686;SDS011;51113;53.646;-113.674;2023-04-07T01:30:52;7.00;;;3.15;;
64686;SDS011;51113;53.646;-113.674;2023-04-07T01:33:22;9.60;;;2.85;;
64686;SDS011;51113;53.646;-113.674;2023-04-07T01:35:50;15.07;;;3.75;;
64686;SDS011;51113;53.646;-113.674;2023-04-07T01:38:19;7.30;;;3.22;;
64686;SDS011;51113;53.646;-113.674;2023-04-07T01:40:48;8.23;;;3.17;;
64686;SDS011;51113;53.646;-113.674;2023-04-07T01:43:18;10.10;;;3.85;;
64686;SDS011;51113;53.646;-113.674;2023-04-07T01:45:48;13.45;;;3.17;;
64686;SDS011;51113;53.646;-113.674;2023-04-07T01:48:18;12.60;;;3.53;;
64686;SDS011;51113;53.646;-113.674;2023-04-07T01:50:46;9.82;;;3.50;;
64686;SDS011;51113;53.646;-113.674;2023-04-07T01:53:15;5.25;;;3.05;;
64686;SDS011;51113;53.646;-113.674;2023-04-07T01:55:43;11.00;;;3.35;;
64686;SDS011;51113;53.646;-113.674;2023-04-07T01:58:12;10.13;;;3.20;;
64686;SDS011;51113;53.646;-113.674;2023-04-07T02:00:41;13.82;;;3.75;;
64686;SDS011;51113;53.646;-113.674;2023-04-07T02:03:11;8.50;;;3.30;;
64686;SDS011;51113;53.646;-113.674;2023-04-07T02:05:48;7.25;;;3.65;;
64686;SDS011;51113;53.646;-113.674;2023-04-07T02:08:19;7.60;;;3.90;;
64686;SDS011;51113;53.646;-113.674;2023-04-07T02:10:49;13.57;;;3.67;;
64686;SDS011;51113;53.646;-113.674;2023-04-07T02:13:19;14.43;;;3.38;;
64686;SDS011;51113;53.646;-113.674;2023-04-07T02:15:48;10.75;;;3.60;;
64686;SDS011;51113;53.646;-113.674;2023-04-07T02:18:17;14.15;;;3.33;;
64686;SDS011;51113;53.646;-113.674;2023-04-07T02:20:46;13.10;;;3.38;;
64686;SDS011;51113;53.646;-113.674;2023-04-07T02:23:15;10.90;;;3.45;;
64686;SDS011;51113;53.646;-113.674;2023-04-07T02:25:44;10.25;;;3.85;;
64686;SDS011;51113;53.646;-113.674;2023-04-07T02:28:13;8.07;;;3.58;;
64686;SDS011;51113;53.646;-113.674;2023-04-07T02:30:42;8.20;;;3.92;;
64686;SDS011;51113;53.646;-113.674;2023-04-07T02:33:10;13.45;;;3.40;;
64686;SDS011;51113;53.646;-113.674;2023-04-07T02:35:39;10.13;;;3.50;;
64686;SDS011;51113;53.646;-113.674;2023-04-07T02:38:08;12.88;;;3.65;;
64686;SDS011;51113;53.646;-113.674;2023-04-07T02:40:37;7.60;;;3.78;;
64686;SDS011;51113;53.646;-113.674;2023-04-07T02:43:06;11.88;;;3.20;;
64686;SDS011;51113;53.646;-113.674;2023-04-07T02:45:34;6.00;;;3.63;;
64686;SDS011;51113;53.646;-113.674;2023-04-07T02:48:03;9.15;;;3.40;;
64686;SDS011;51113;53.646;-113.674;2023-04-07T02:50:32;8.43;;;3.45;;
64686;SDS011;51113;53.646;-113.674;2023-04-07T02:53:01;12.57;;;3.75;;
64686;SDS011;51113;53.646;-113.674;2023-04-07T02:55:29;9.45;;;3.70;;
64686;SDS011;51113;53.646;-113.674;2023-04-07T02:57:58;9.68;;;3.55;;
64686;SDS011;51113;53.646;-113.674;2023-04-07T03:00:27;7.68;;;3.83;;
64686;SDS011;51113;53.646;-113.674;2023-04-07T03:02:55;12.63;;;3.92;;
64686;SDS011;51113;53.646;-113.674;2023-04-07T03:05:24;7.85;;;3.55;;
64686;SDS011;51113;53.646;-113.674;2023-04-07T03:07:53;7.57;;;3.65;;
64686;SDS011;51113;53.646;-113.674;2023-04-07T03:10:22;8.75;;;3.90;;
64686;SDS011;51113;53.646;-113.674;2023-04-07T03:12:51;16.25;;;4.00;;
64686;SDS011;51113;53.646;-113.674;2023-04-07T03:15:19;11.25;;;4.05;;
64686;SDS011;51113;53.646;-113.674;2023-04-07T03:17:48;13.05;;;4.00;;
64686;SDS011;51113;53.646;-113.674;2023-04-07T03:20:17;9.38;;;4.20;;
64686;SDS011;51113;53.646;-113.674;2023-04-07T03:22:46;13.07;;;4.10;;
64686;SDS011;51113;53.646;-113.674;2023-04-07T03:25:14;7.35;;;3.80;;
64686;SDS011;51113;53.646;-113.674;2023-04-07T03:27:43;13.25;;;5.15;;
64686;SDS011;51113;53.646;-113.674;2023-04-07T03:30:12;13.10;;;3.72;;
64686;SDS011;51113;53.646;-113.674;2023-04-07T03:32:41;13.43;;;4.28;;
64686;SDS011;51113;53.646;-113.674;2023-04-07T03:35:10;13.60;;;4.78;;
64686;SDS011;51113;53.646;-113.674;2023-04-07T03:37:38;8.95;;;4.35;;
64686;SDS011;51113;53.646;-113.674;2023-04-07T03:40:07;10.82;;;4.30;;
64686;SDS011;51113;53.646;-113.674;2023-04-07T03:42:36;12.00;;;4.35;;
64686;SDS011;51113;53.646;-113.674;2023-04-07T03:45:05;13.30;;;4.85;;
64686;SDS011;51113;53.646;-113.674;2023-04-07T03:47:34;17.77;;;4.78;;
64686;SDS011;51113;53.646;-113.674;2023-04-07T03:50:03;16.48;;;5.10;;
64686;SDS011;51113;53.646;-113.674;2023-04-07T03:52:32;7.50;;;3.80;;
64686;SDS011;51113;53.646;-113.674;2023-04-07T03:55:01;9.55;;;4.38;;
64686;SDS011;51113;53.646;-113.674;2023-04-07T03:57:29;6.63;;;4.00;;
64686;SDS011;51113;53.646;-113.674;2023-04-07T03:59:58;12.82;;;4.50;;
64686;SDS011;51113;53.646;-113.674;2023-04-07T04:02:27;8.00;;;4.15;;
64686;SDS011;51113;53.646;-113.674;2023-04-07T04:04:55;11.77;;;4.43;;
64686;SDS011;51113;53.646;-113.674;2023-04-07T04:07:24;13.45;;;4.10;;
64686;SDS011;51113;53.646;-113.674;2023-04-07T04:09:53;8.43;;;3.47;;
64686;SDS011;51113;53.646;-113.674;2023-04-07T04:12:23;10.20;;;4.47;;
64686;SDS011;51113;53.646;-113.674;2023-04-07T04:14:52;13.68;;;4.18;;
64686;SDS011;51113;53.646;-113.674;2023-04-07T04:17:21;8.60;;;4.15;;
64686;SDS011;51113;53.646;-113.674;2023-04-07T04:19:50;11.30;;;3.63;;
64686;SDS011;51113;53.646;-113.674;2023-04-07T04:22:19;8.35;;;4.00;;
64686;SDS011;51113;53.646;-113.674;2023-04-07T04:24:47;8.07;;;3.70;;
64686;SDS011;51113;53.646;-113.674;2023-04-07T04:27:16;11.77;;;4.10;;
64686;SDS011;51113;53.646;-113.674;2023-04-07T04:29:45;7.40;;;3.85;;
64686;SDS011;51113;53.646;-113.674;2023-04-07T04:32:13;6.88;;;3.40;;
64686;SDS011;51113;53.646;-113.674;2023-04-07T04:34:41;5.55;;;3.53;;
64686;SDS011;51113;53.646;-113.674;2023-04-07T04:37:10;7.93;;;3.25;;
64686;SDS011;51113;53.646;-113.674;2023-04-07T04:39:39;7.00;;;3.38;;
64686;SDS011;51113;53.646;-113.674;2023-04-07T04:42:08;8.43;;;3.45;;
64686;SDS011;51113;53.646;-113.674;2023-04-07T04:44:36;6.88;;;3.53;;
64686;SDS011;51113;53.646;-113.674;2023-04-07T04:47:05;8.55;;;3.13;;
64686;SDS011;51113;53.646;-113.674;2023-04-07T04:49:34;5.30;;;3.20;;
64686;SDS011;51113;53.646;-113.674;2023-04-07T04:52:02;7.00;;;2.90;;
64686;SDS011;51113;53.646;-113.674;2023-04-07T04:54:31;10.05;;;3.20;;
64686;SDS011;51113;53.646;-113.674;2023-04-07T04:57:00;8.40;;;3.55;;
64686;SDS011;51113;53.646;-113.674;2023-04-07T04:59:29;9.50;;;3.80;;
64686;SDS011;51113;53.646;-113.674;2023-04-07T05:01:58;5.20;;;3.00;;
64686;SDS011;51113;53.646;-113.674;2023-04-07T05:04:26;7.43;;;3.03;;
64686;SDS011;51113;53.646;-113.674;2023-04-07T05:06:55;4.85;;;2.70;;
64686;SDS011;51113;53.646;-113.674;2023-04-07T05:09:24;10.90;;;3.10;;
64686;SDS011;51113;53.646;-113.674;2023-04-07T05:11:54;5.32;;;2.40;;
64686;SDS011;51113;53.646;-113.674;2023-04-07T05:14:24;7.55;;;3.00;;
64686;SDS011;51113;53.646;-113.674;2023-04-07T05:16:53;4.78;;;2.45;;
64686;SDS011;51113;53.646;-113.674;2023-04-07T05:19:22;9.60;;;3.00;;
64686;SDS011;51113;53.646;-113.674;2023-04-07T05:21:51;12.70;;;3.20;;
64686;SDS011;51113;53.646;-113.674;2023-04-07T05:24:19;11.23;;;2.67;;
64686;SDS011;51113;53.646;-113.674;2023-04-07T05:26:49;8.13;;;2.97;;
64686;SDS011;51113;53.646;-113.674;2023-04-07T05:29:18;8.63;;;3.00;;
64686;SDS011;51113;53.646;-113.674;2023-04-07T05:31:46;9.77;;;2.80;;
64686;SDS011;51113;53.646;-113.674;2023-04-07T05:34:15;4.53;;;2.55;;
64686;SDS011;51113;53.646;-113.674;2023-04-07T05:36:44;14.80;;;2.92;;
64686;SDS011;51113;53.646;-113.674;2023-04-07T05:39:12;6.78;;;2.75;;
64686;SDS011;51113;53.646;-113.674;2023-04-07T05:41:41;21.45;;;2.35;;
64686;SDS011;51113;53.646;-113.674;2023-04-07T05:44:10;4.05;;;2.25;;
64686;SDS011;51113;53.646;-113.674;2023-04-07T05:46:39;6.30;;;2.53;;
64686;SDS011;51113;53.646;-113.674;2023-04-07T05:49:07;7.38;;;2.58;;
64686;SDS011;51113;53.646;-113.674;2023-04-07T05:51:45;4.32;;;2.38;;
64686;SDS011;51113;53.646;-113.674;2023-04-07T05:54:14;6.40;;;2.70;;
64686;SDS011;51113;53.646;-113.674;2023-04-07T05:56:43;4.32;;;2.45;;
64686;SDS011;51113;53.646;-113.674;2023-04-07T05:59:12;8.93;;;2.33;;
64686;SDS011;51113;53.646;-113.674;2023-04-07T06:01:41;12.38;;;3.03;;
64686;SDS011;51113;53.646;-113.674;2023-04-07T06:04:10;5.95;;;2.30;;
64686;SDS011;51113;53.646;-113.674;2023-04-07T06:09:44;5.32;;;2.60;;
64686;SDS011;51113;53.646;-113.674;2023-04-07T06:12:13;7.03;;;2.70;;
64686;SDS011;51113;53.646;-113.674;2023-04-07T06:14:45;10.18;;;2.80;;
64686;SDS011;51113;53.646;-113.674;2023-04-07T06:17:19;6.40;;;2.40;;
64686;SDS011;51113;53.646;-113.674;2023-04-07T06:19:48;11.15;;;3.25;;
64686;SDS011;51113;53.646;-113.674;2023-04-07T06:22:16;8.07;;;2.10;;
64686;SDS011;51113;53.646;-113.674;2023-04-07T06:24:45;10.45;;;2.58;;
64686;SDS011;51113;53.646;-113.674;2023-04-07T06:27:14;14.38;;;2.65;;
64686;SDS011;51113;53.646;-113.674;2023-04-07T06:29:43;9.05;;;2.50;;
64686;SDS011;51113;53.646;-113.674;2023-04-07T06:32:11;11.30;;;2.75;;
64686;SDS011;51113;53.646;-113.674;2023-04-07T06:34:39;6.97;;;2.35;;
64686;SDS011;51113;53.646;-113.674;2023-04-07T06:37:08;6.50;;;2.67;;
64686;SDS011;51113;53.646;-113.674;2023-04-07T06:39:58;11.32;;;2.60;;
64686;SDS011;51113;53.646;-113.674;2023-04-07T06:42:26;8.57;;;2.20;;
64686;SDS011;51113;53.646;-113.674;2023-04-07T06:44:54;5.03;;;2.28;;
64686;SDS011;51113;53.646;-113.674;2023-04-07T06:47:23;6.70;;;2.42;;
64686;SDS011;51113;53.646;-113.674;2023-04-07T06:49:51;9.10;;;2.90;;
64686;SDS011;51113;53.646;-113.674;2023-04-07T06:52:20;6.78;;;2.45;;
64686;SDS011;51113;53.646;-113.674;2023-04-07T06:54:48;4.70;;;2.47;;
64686;SDS011;51113;53.646;-113.674;2023-04-07T06:57:17;4.60;;;2.30;;
64686;SDS011;51113;53.646;-113.674;2023-04-07T06:59:46;10.82;;;2.35;;
64686;SDS011;51113;53.646;-113.674;2023-04-07T07:02:14;6.85;;;2.53;;
64686;SDS011;51113;53.646;-113.674;2023-04-07T07:04:44;4.55;;;2.58;;
64686;SDS011;51113;53.646;-113.674;2023-04-07T07:07:12;4.60;;;2.63;;
64686;SDS011;51113;53.646;-113.674;2023-04-07T07:09:41;8.93;;;2.60;;
64686;SDS011;51113;53.646;-113.674;2023-04-07T07:12:09;7.90;;;2.50;;
64686;SDS011;51113;53.646;-113.674;2023-04-07T07:14:38;5.88;;;2.75;;
64686;SDS011;51113;53.646;-113.674;2023-04-07T07:17:07;4.80;;;2.60;;
64686;SDS011;51113;53.646;-113.674;2023-04-07T07:19:36;5.85;;;2.45;;
64686;SDS011;51113;53.646;-113.674;2023-04-07T07:22:05;6.95;;;2.55;;
64686;SDS011;51113;53.646;-113.674;2023-04-07T07:24:34;8.88;;;2.25;;
64686;SDS011;51113;53.646;-113.674;2023-04-07T07:27:03;3.95;;;2.67;;
64686;SDS011;51113;53.646;-113.674;2023-04-07T07:29:32;7.60;;;2.30;;
64686;SDS011;51113;53.646;-113.674;2023-04-07T07:32:00;4.22;;;2.40;;
64686;SDS011;51113;53.646;-113.674;2023-04-07T07:34:29;4.43;;;2.65;;
64686;SDS011;51113;53.646;-113.674;2023-04-07T07:36:58;4.18;;;2.45;;
64686;SDS011;51113;53.646;-113.674;2023-04-07T07:39:27;10.20;;;2.35;;
64686;SDS011;51113;53.646;-113.674;2023-04-07T07:41:56;4.30;;;2.00;;
64686;SDS011;51113;53.646;-113.674;2023-04-07T07:44:25;5.20;;;2.60;;
64686;SDS011;51113;53.646;-113.674;2023-04-07T07:46:54;7.85;;;3.20;;
64686;SDS011;51113;53.646;-113.674;2023-04-07T07:49:22;6.00;;;2.75;;
64686;SDS011;51113;53.646;-113.674;2023-04-07T07:51:51;9.18;;;2.55;;
64686;SDS011;51113;53.646;-113.674;2023-04-07T07:54:20;5.22;;;2.40;;
64686;SDS011;51113;53.646;-113.674;2023-04-07T07:56:49;6.72;;;2.03;;
64686;SDS011;51113;53.646;-113.674;2023-04-07T07:59:18;9.60;;;2.83;;
64686;SDS011;51113;53.646;-113.674;2023-04-07T08:01:48;4.07;;;2.28;;
64686;SDS011;51113;53.646;-113.674;2023-04-07T08:04:17;3.80;;;2.17;;
64686;SDS011;51113;53.646;-113.674;2023-04-07T08:06:46;4.93;;;2.72;;
64686;SDS011;51113;53.646;-113.674;2023-04-07T08:09:14;4.47;;;2.33;;
64686;SDS011;51113;53.646;-113.674;2023-04-07T08:11:44;7.18;;;2.22;;
64686;SDS011;51113;53.646;-113.674;2023-04-07T08:14:15;4.07;;;2.33;;
64686;SDS011;51113;53.646;-113.674;2023-04-07T08:16:44;6.45;;;2.45;;
64686;SDS011;51113;53.646;-113.674;2023-04-07T08:19:13;8.73;;;2.65;;
64686;SDS011;51113;53.646;-113.674;2023-04-07T08:21:41;4.07;;;2.53;;
64686;SDS011;51113;53.646;-113.674;2023-04-07T08:24:11;3.38;;;2.10;;
64686;SDS011;51113;53.646;-113.674;2023-04-07T08:26:40;3.80;;;2.22;;
64686;SDS011;51113;53.646;-113.674;2023-04-07T08:29:08;4.20;;;2.40;;
64686;SDS011;51113;53.646;-113.674;2023-04-07T08:31:37;5.55;;;2.55;;
64686;SDS011;51113;53.646;-113.674;2023-04-07T08:34:06;4.43;;;2.60;;
64686;SDS011;51113;53.646;-113.674;2023-04-07T08:36:35;4.20;;;2.70;;
64686;SDS011;51113;53.646;-113.674;2023-04-07T08:39:03;4.07;;;2.47;;
64686;SDS011;51113;53.646;-113.674;2023-04-07T08:41:35;6.63;;;2.40;;
64686;SDS011;51113;53.646;-113.674;2023-04-07T08:44:08;4.68;;;2.60;;
64686;SDS011;51113;53.646;-113.674;2023-04-07T08:46:38;7.53;;;2.23;;
64686;SDS011;51113;53.646;-113.674;2023-04-07T08:49:07;3.92;;;2.30;;
64686;SDS011;51113;53.646;-113.674;2023-04-07T08:51:39;8.80;;;2.67;;
64686;SDS011;51113;53.646;-113.674;2023-04-07T08:54:14;9.23;;;2.75;;
64686;SDS011;51113;53.646;-113.674;2023-04-07T08:56:45;4.28;;;2.72;;
64686;SDS011;51113;53.646;-113.674;2023-04-07T08:59:14;7.07;;;2.63;;
64686;SDS011;51113;53.646;-113.674;2023-04-07T09:01:45;4.95;;;2.50;;
64686;SDS011;51113;53.646;-113.674;2023-04-07T09:04:14;9.80;;;2.90;;
64686;SDS011;51113;53.646;-113.674;2023-04-07T09:06:44;4.20;;;2.50;;
64686;SDS011;51113;53.646;-113.674;2023-04-07T09:09:13;8.32;;;2.80;;
64686;SDS011;51113;53.646;-113.674;2023-04-07T09:11:42;6.40;;;2.50;;
64686;SDS011;51113;53.646;-113.674;2023-04-07T09:14:11;4.72;;;2.92;;
64686;SDS011;51113;53.646;-113.674;2023-04-07T09:16:40;9.50;;;3.00;;
64686;SDS011;51113;53.646;-113.674;2023-04-07T09:19:09;5.93;;;2.85;;
64686;SDS011;51113;53.646;-113.674;2023-04-07T09:21:50;4.68;;;2.72;;
64686;SDS011;51113;53.646;-113.674;2023-04-07T09:24:23;4.70;;;2.60;;
64686;SDS011;51113;53.646;-113.674;2023-04-07T09:27:14;5.43;;;2.53;;
64686;SDS011;51113;53.646;-113.674;2023-04-07T09:29:44;4.78;;;2.72;;
64686;SDS011;51113;53.646;-113.674;2023-04-07T09:35:11;4.72;;;2.83;;
64686;SDS011;51113;53.646;-113.674;2023-04-07T09:37:40;8.73;;;3.08;;
64686;SDS011;51113;53.646;-113.674;2023-04-07T09:40:09;7.00;;;2.70;;
64686;SDS011;51113;53.646;-113.674;2023-04-07T09:42:44;3.90;;;2.72;;
64686;SDS011;51113;53.646;-113.674;2023-04-07T09:45:20;4.35;;;2.53;;
64686;SDS011;51113;53.646;-113.674;2023-04-07T09:48:03;5.32;;;2.60;;
64686;SDS011;51113;53.646;-113.674;2023-04-07T09:50:34;5.50;;;3.00;;
64686;SDS011;51113;53.646;-113.674;2023-04-07T09:53:07;3.65;;;2.50;;
64686;SDS011;51113;53.646;-113.674;2023-04-07T09:55:35;4.50;;;2.88;;
64686;SDS011;51113;53.646;-113.674;2023-04-07T09:58:06;4.32;;;2.30;;
64686;SDS011;51113;53.646;-113.674;2023-04-07T10:00:36;4.13;;;2.60;;
64686;SDS011;51113;53.646;-113.674;2023-04-07T10:03:05;4.40;;;2.78;;
64686;SDS011;51113;53.646;-113.674;2023-04-07T10:05:34;7.15;;;2.60;;
64686;SDS011;51113;53.646;-113.674;2023-04-07T10:08:04;4.82;;;2.40;;
64686;SDS011;51113;53.646;-113.674;2023-04-07T10:10:34;4.40;;;2.80;;
64686;SDS011;51113;53.646;-113.674;2023-04-07T10:13:04;4.15;;;2.65;;
64686;SDS011;51113;53.646;-113.674;2023-04-07T10:15:32;4.57;;;2.92;;
64686;SDS011;51113;53.646;-113.674;2023-04-07T10:18:00;5.30;;;2.80;;
64686;SDS011;51113;53.646;-113.674;2023-04-07T10:23:07;4.68;;;2.60;;
64686;SDS011;51113;53.646;-113.674;2023-04-07T10:25:40;5.50;;;2.97;;
64686;SDS011;51113;53.646;-113.674;2023-04-07T10:28:09;8.23;;;2.78;;
64686;SDS011;51113;53.646;-113.674;2023-04-07T10:30:39;5.57;;;2.88;;
64686;SDS011;51113;53.646;-113.674;2023-04-07T10:33:08;4.95;;;2.90;;
64686;SDS011;51113;53.646;-113.674;2023-04-07T10:36:20;5.45;;;2.60;;
64686;SDS011;51113;53.646;-113.674;2023-04-07T10:38:33;4.82;;;2.90;;
64686;SDS011;51113;53.646;-113.674;2023-04-07T10:41:30;6.60;;;3.10;;
64686;SDS011;51113;53.646;-113.674;2023-04-07T10:44:00;5.85;;;3.00;;
64686;SDS011;51113;53.646;-113.674;2023-04-07T10:49:16;4.78;;;2.80;;
64686;SDS011;51113;53.646;-113.674;2023-04-07T10:52:20;6.78;;;2.83;;
64686;SDS011;51113;53.646;-113.674;2023-04-07T11:03:32;15.80;;;3.22;;
64686;SDS011;51113;53.646;-113.674;2023-04-07T11:06:14;3.17;;;2.22;;
64686;SDS011;51113;53.646;-113.674;2023-04-07T11:08:43;5.18;;;3.00;;
64686;SDS011;51113;53.646;-113.674;2023-04-07T11:11:15;6.45;;;3.03;;
64686;SDS011;51113;53.646;-113.674;2023-04-07T11:13:49;4.80;;;2.88;;
64686;SDS011;51113;53.646;-113.674;2023-04-07T11:16:18;6.95;;;2.90;;
64686;SDS011;51113;53.646;-113.674;2023-04-07T11:18:49;6.75;;;3.13;;
64686;SDS011;51113;53.646;-113.674;2023-04-07T11:21:18;7.53;;;2.90;;
64686;SDS011;51113;53.646;-113.674;2023-04-07T11:23:47;8.70;;;3.30;;
64686;SDS011;51113;53.646;-113.674;2023-04-07T11:26:16;4.47;;;2.97;;
64686;SDS011;51113;53.646;-113.674;2023-04-07T11:28:48;6.45;;;3.30;;
64686;SDS011;51113;53.646;-113.674;2023-04-07T11:31:21;5.90;;;2.75;;
64686;SDS011;51113;53.646;-113.674;2023-04-07T11:33:53;5.70;;;3.10;;
64686;SDS011;51113;53.646;-113.674;2023-04-07T11:36:40;4.82;;;2.92;;
64686;SDS011;51113;53.646;-113.674;2023-04-07T11:39:18;9.40;;;3.20;;
64686;SDS011;51113;53.646;-113.674;2023-04-07T11:41:49;4.55;;;3.08;;
64686;SDS011;51113;53.646;-113.674;2023-04-07T11:44:17;9.48;;;3.70;;
64686;SDS011;51113;53.646;-113.674;2023-04-07T11:49:26;10.00;;;3.30;;
64686;SDS011;51113;53.646;-113.674;2023-04-07T11:51:58;11.57;;;3.30;;
64686;SDS011;51113;53.646;-113.674;2023-04-07T11:57:27;8.00;;;3.25;;
64686;SDS011;51113;53.646;-113.674;2023-04-07T12:00:06;6.20;;;3.20;;
64686;SDS011;51113;53.646;-113.674;2023-04-07T12:02:38;11.60;;;3.50;;
64686;SDS011;51113;53.646;-113.674;2023-04-07T12:05:08;5.03;;;3.33;;
64686;SDS011;51113;53.646;-113.674;2023-04-07T12:07:38;4.88;;;3.03;;
64686;SDS011;51113;53.646;-113.674;2023-04-07T12:10:21;8.48;;;3.28;;
64686;SDS011;51113;53.646;-113.674;2023-04-07T12:12:54;6.47;;;3.58;;
64686;SDS011;51113;53.646;-113.674;2023-04-07T12:15:25;5.40;;;3.40;;
64686;SDS011;51113;53.646;-113.674;2023-04-07T12:17:54;8.50;;;3.83;;
64686;SDS011;51113;53.646;-113.674;2023-04-07T12:20:22;6.07;;;3.20;;
64686;SDS011;51113;53.646;-113.674;2023-04-07T12:22:51;5.40;;;3.28;;
64686;SDS011;51113;53.646;-113.674;2023-04-07T12:25:20;6.53;;;3.58;;
64686;SDS011;51113;53.646;-113.674;2023-04-07T12:27:49;6.82;;;3.17;;
64686;SDS011;51113;53.646;-113.674;2023-04-07T12:30:18;7.25;;;3.80;;
64686;SDS011;51113;53.646;-113.674;2023-04-07T12:32:46;6.32;;;3.53;;
64686;SDS011;51113;53.646;-113.674;2023-04-07T12:35:15;11.27;;;3.92;;
64686;SDS011;51113;53.646;-113.674;2023-04-07T12:37:44;14.15;;;4.03;;
64686;SDS011;51113;53.646;-113.674;2023-04-07T12:40:15;12.23;;;3.35;;
64686;SDS011;51113;53.646;-113.674;2023-04-07T12:42:44;7.50;;;3.53;;
64686;SDS011;51113;53.646;-113.674;2023-04-07T12:45:13;6.75;;;3.65;;
64686;SDS011;51113;53.646;-113.674;2023-04-07T12:47:43;9.13;;;3.53;;
64686;SDS011;51113;53.646;-113.674;2023-04-07T12:50:12;6.57;;;4.13;;
64686;SDS011;51113;53.646;-113.674;2023-04-07T12:52:40;7.65;;;3.65;;
64686;SDS011;51113;53.646;-113.674;2023-04-07T12:55:08;8.63;;;3.88;;
64686;SDS011;51113;53.646;-113.674;2023-04-07T12:57:37;5.68;;;3.70;;
64686;SDS011;51113;53.646;-113.674;2023-04-07T13:00:06;7.93;;;3.50;;
64686;SDS011;51113;53.646;-113.674;2023-04-07T13:02:35;11.00;;;3.90;;
64686;SDS011;51113;53.646;-113.674;2023-04-07T13:05:04;6.00;;;3.80;;
64686;SDS011;51113;53.646;-113.674;2023-04-07T13:07:33;8.95;;;3.90;;
64686;SDS011;51113;53.646;-113.674;2023-04-07T13:10:03;6.05;;;4.18;;
64686;SDS011;51113;53.646;-113.674;2023-04-07T13:12:35;12.05;;;3.63;;
64686;SDS011;51113;53.646;-113.674;2023-04-07T13:15:04;7.50;;;3.72;;
64686;SDS011;51113;53.646;-113.674;2023-04-07T13:17:33;7.90;;;3.95;;
64686;SDS011;51113;53.646;-113.674;2023-04-07T13:20:05;6.88;;;3.90;;
64686;SDS011;51113;53.646;-113.674;2023-04-07T13:22:34;7.18;;;4.28;;
64686;SDS011;51113;53.646;-113.674;2023-04-07T13:25:15;7.82;;;4.05;;
64686;SDS011;51113;53.646;-113.674;2023-04-07T13:27:44;6.10;;;3.97;;
64686;SDS011;51113;53.646;-113.674;2023-04-07T13:30:13;7.97;;;4.10;;
64686;SDS011;51113;53.646;-113.674;2023-04-07T13:32:42;9.07;;;4.32;;
64686;SDS011;51113;53.646;-113.674;2023-04-07T13:35:11;7.85;;;3.95;;
64686;SDS011;51113;53.646;-113.674;2023-04-07T13:37:40;10.45;;;4.28;;
64686;SDS011;51113;53.646;-113.674;2023-04-07T13:40:09;8.98;;;3.67;;
64686;SDS011;51113;53.646;-113.674;2023-04-07T13:42:39;7.07;;;3.70;;
64686;SDS011;51113;53.646;-113.674;2023-04-07T13:45:08;7.28;;;3.88;;
64686;SDS011;51113;53.646;-113.674;2023-04-07T13:47:37;8.25;;;4.00;;
64686;SDS011;51113;53.646;-113.674;2023-04-07T13:50:06;6.32;;;3.63;;
64686;SDS011;51113;53.646;-113.674;2023-04-07T13:52:35;5.18;;;3.38;;
64686;SDS011;51113;53.646;-113.674;2023-04-07T13:55:04;11.05;;;3.90;;
64686;SDS011;51113;53.646;-113.674;2023-04-07T13:57:33;7.38;;;4.20;;
64686;SDS011;51113;53.646;-113.674;2023-04-07T14:00:02;8.02;;;4.00;;
64686;SDS011;51113;53.646;-113.674;2023-04-07T14:02:31;6.03;;;3.72;;
64686;SDS011;51113;53.646;-113.674;2023-04-07T14:05:00;7.65;;;3.47;;
64686;SDS011;51113;53.646;-113.674;2023-04-07T14:07:29;7.65;;;3.85;;
64686;SDS011;51113;53.646;-113.674;2023-04-07T14:09:58;6.22;;;4.00;;
64686;SDS011;51113;53.646;-113.674;2023-04-07T14:12:27;9.65;;;4.10;;
64686;SDS011;51113;53.646;-113.674;2023-04-07T14:14:56;9.80;;;3.85;;
64686;SDS011;51113;53.646;-113.674;2023-04-07T14:17:25;15.38;;;4.07;;
64686;SDS011;51113;53.646;-113.674;2023-04-07T14:19:54;10.68;;;4.03;;
64686;SDS011;51113;53.646;-113.674;2023-04-07T14:22:22;6.75;;;3.83;;
64686;SDS011;51113;53.646;-113.674;2023-04-07T14:24:51;8.55;;;4.00;;
64686;SDS011;51113;53.646;-113.674;2023-04-07T14:27:20;12.38;;;4.10;;
64686;SDS011;51113;53.646;-113.674;2023-04-07T14:29:49;8.55;;;4.60;;
64686;SDS011;51113;53.646;-113.674;2023-04-07T14:32:18;7.47;;;3.58;;
64686;SDS011;51113;53.646;-113.674;2023-04-07T14:34:46;7.68;;;3.92;;
64686;SDS011;51113;53.646;-113.674;2023-04-07T14:37:15;7.20;;;4.05;;
64686;SDS011;51113;53.646;-113.674;2023-04-07T14:39:45;7.60;;;3.70;;
64686;SDS011;51113;53.646;-113.674;2023-04-07T14:42:27;9.82;;;3.85;;
64686;SDS011;51113;53.646;-113.674;2023-04-07T14:44:57;7.72;;;4.20;;
64686;SDS011;51113;53.646;-113.674;2023-04-07T14:47:26;7.43;;;3.90;;
64686;SDS011;51113;53.646;-113.674;2023-04-07T14:49:55;5.43;;;3.67;;
64686;SDS011;51113;53.646;-113.674;2023-04-07T14:52:23;6.95;;;3.72;;
64686;SDS011;51113;53.646;-113.674;2023-04-07T14:54:52;9.23;;;3.72;;
64686;SDS011;51113;53.646;-113.674;2023-04-07T14:57:23;6.45;;;3.78;;
64686;SDS011;51113;53.646;-113.674;2023-04-07T14:59:51;7.80;;;4.32;;